Airfield :
LOGIN :

Register | Disclaimer

   EN    FR    IT 

 










Legend :    VFR   Marginal VFR   IFR   Intensive IFR   Very Intensive IFR
Visi :
Ceiling :
>= 8 km
>= 3000ft
5 to 8 km
1000 to 3000 ft
1500m to 5 km
500 to 1000 ft
800 to 1500m
200 to 500 ft
< 800m
< 200 ft
Symbols :   Thunderstorms  Fog  Heavy snow  Heavy precipitations  Wind > 20 kt
SIGMETs :     Misc.  Thunderstorms  Icing  Turbulence  Mountain Waves  Volcanic Ashes






- Airport Elevation : 0 ft


ETEB - Ansbach Army Heliport

CURRENT METAR :
  • 290645Z AUTO 00000KT 1000 BR VV001 03/02 A2996 RMK AO2 SLP178 RVRNO $

EXPIRED METARs :
  • 290615Z AUTO 00000KT 1600 BR VV001 03/02 A2995 RMK AO2 SLP175 RVRNO $
  • 290540Z AUTO 00000KT 3600 BR OVC003 03/02 A2995 RMK AO2 VIS 3600V5000 SLP175 $
  • 290510Z AUTO 00000KT 6000 BR OVC004 03/02 A2994 RMK AO2 SLP171 $
  • 290455Z AUTO 00000KT 6000 BR OVC005 03/02 A2994 RMK AO2 DZE02DZB23E51 SLP171 P0000 T00290022 $
  • 290425Z AUTO 00000KT 8000 -DZ BR OVC008 03/02 A2993 RMK AO2 DZE02DZB23 SLP168 $
  • 290423Z AUTO 00000KT 8000 -DZ BR OVC008 03/02 A2993 RMK AO2 DZE02DZB23 SLP168 $

TAF TAF ETEB
Valid from the 29 at 07:00 until the 30 at 13:00 UTC


290700Z 2907/3013 VRB06KT 0800 FG VV001 QNH2996INS
BECMG 2912/2913 VRB06KT 0800 -SHRA FG OVC002 QNH2998INS
BECMG 2916/2917 VRB06KT 1000 BR OVC003 QNH3000INS
BECMG 2919/2920 VRB06KT 1000 -SHRA BR OVC003 QNH3003INS
BECMG 3010/3011 VRB06KT 0800 FG OVC004 QNH3007INS TX05/2914Z TN03/3007Z



MET'MAP, your aeronautical weather chart ! - Copyright ORBIFLY December 2007 - Disclaimer

ORBIFLY MET'MAP TEAM :

Programming & Development : Alexandra Zaïnal
Original concept : Baudouin d'Aumeries
Technical & hardware support : Manuel Goepfert
Assistance : Marc-Olivier Méhu




SOURCES & CREDITS :

   NOAA